createdAt,value
2018-08-11T00:02:49.686Z,1.98
2018-08-11T00:06:14.185Z,1.87
2018-08-11T00:09:38.618Z,1.75
2018-08-11T00:13:03.083Z,2.42
2018-08-11T00:16:27.540Z,1.85
2018-08-11T00:19:51.982Z,3.12
2018-08-11T00:23:16.428Z,3.25
2018-08-11T00:26:40.916Z,4.30
2018-08-11T00:30:10.608Z,4.12
2018-08-11T00:33:35.074Z,4.42
2018-08-11T00:36:59.532Z,4.72
2018-08-11T00:40:24.027Z,3.80
2018-08-11T00:43:48.460Z,2.80
2018-08-11T00:47:12.893Z,1.92
2018-08-11T00:50:37.561Z,1.35
2018-08-11T00:54:02.087Z,1.30
2018-08-11T00:57:26.566Z,1.40
2018-08-11T01:00:51.065Z,1.40
2018-08-11T01:04:15.518Z,1.10
2018-08-11T01:07:40.557Z,1.67
2018-08-11T01:11:05.114Z,1.57
2018-08-11T01:14:29.566Z,1.40
2018-08-11T01:17:54.033Z,1.70
2018-08-11T01:21:18.502Z,1.50
2018-08-11T01:24:42.915Z,1.80
2018-08-11T01:28:07.434Z,1.60
2018-08-11T01:31:31.857Z,1.57
2018-08-11T01:34:56.325Z,1.67
2018-08-11T01:38:20.765Z,1.73
2018-08-11T01:41:45.216Z,2.10
2018-08-11T01:45:11.865Z,2.23
2018-08-11T01:48:36.365Z,1.90
2018-08-11T01:52:00.908Z,1.97
2018-08-11T01:55:25.336Z,2.00
2018-08-11T01:58:49.773Z,2.93
2018-08-11T02:02:14.292Z,4.93
2018-08-11T02:05:38.844Z,6.50
2018-08-11T02:09:03.398Z,7.87
2018-08-11T02:12:27.872Z,4.83
2018-08-11T02:15:52.383Z,4.17
2018-08-11T02:19:16.873Z,4.20
2018-08-11T02:22:42.051Z,4.53
2018-08-11T02:26:06.634Z,5.30
2018-08-11T02:29:31.173Z,4.57
2018-08-11T02:32:55.591Z,4.57
2018-08-11T02:36:20.041Z,3.90
2018-08-11T02:39:44.463Z,3.37
2018-08-11T02:43:08.921Z,4.23
2018-08-11T02:46:33.351Z,4.23
2018-08-11T02:49:57.798Z,3.47
2018-08-11T02:53:22.207Z,3.87
2018-08-11T02:56:46.587Z,4.33
2018-08-11T03:00:12.667Z,3.30
2018-08-11T03:03:37.078Z,3.83
2018-08-11T03:07:01.540Z,4.03
2018-08-11T03:10:26.042Z,3.37
2018-08-11T03:13:50.470Z,3.60
2018-08-11T03:17:21.102Z,3.07
2018-08-11T03:20:45.509Z,3.20
2018-08-11T03:24:10.314Z,3.20
2018-08-11T03:27:34.826Z,3.17
2018-08-11T03:30:59.267Z,3.30
2018-08-11T03:34:23.663Z,3.30
2018-08-11T03:37:48.075Z,4.30
2018-08-11T03:41:12.525Z,4.27
2018-08-11T03:44:36.926Z,5.93
2018-08-11T03:48:01.332Z,7.43
2018-08-11T03:51:25.791Z,7.27
2018-08-11T03:54:50.275Z,6.50
2018-08-11T03:58:14.742Z,6.27
2018-08-11T04:01:39.185Z,5.30
2018-08-11T04:05:03.634Z,5.13
2018-08-11T04:08:28.077Z,4.13
2018-08-11T04:11:52.548Z,4.93
2018-08-11T04:15:16.977Z,4.80
2018-08-11T04:18:41.395Z,4.13
2018-08-11T04:22:05.835Z,4.80
2018-08-11T04:25:30.236Z,5.87
2018-08-11T04:28:54.656Z,4.73
2018-08-11T04:32:19.091Z,5.83
2018-08-11T04:35:43.683Z,4.87
2018-08-11T04:39:09.745Z,5.17
2018-08-11T04:42:34.151Z,6.00
2018-08-11T04:45:58.586Z,5.80
2018-08-11T04:49:22.993Z,5.70
2018-08-11T04:52:47.408Z,5.83
2018-08-11T04:56:11.823Z,6.10
2018-08-11T04:59:42.883Z,6.20
2018-08-11T05:03:07.346Z,6.67
2018-08-11T05:06:31.809Z,7.87
2018-08-11T05:09:56.231Z,6.57
2018-08-11T05:13:20.629Z,6.97
2018-08-11T05:16:45.068Z,5.77
2018-08-11T05:20:09.520Z,7.30
2018-08-11T05:23:33.928Z,7.40
2018-08-11T05:26:58.335Z,8.60
2018-08-11T05:30:22.820Z,8.10
2018-08-11T05:33:47.364Z,8.03
2018-08-11T05:37:11.895Z,7.97
2018-08-11T05:40:36.369Z,7.50
2018-08-11T05:44:01.185Z,8.60
2018-08-11T05:47:25.688Z,8.53
2018-08-11T05:50:50.278Z,8.23
2018-08-11T05:54:14.748Z,7.77
2018-08-11T05:57:39.273Z,8.20
2018-08-11T06:01:03.762Z,9.03
2018-08-11T06:04:28.236Z,9.07
2018-08-11T06:07:52.751Z,10.03
2018-08-11T06:11:18.297Z,9.80
2018-08-11T06:14:44.894Z,10.03
2018-08-11T06:18:09.370Z,9.60
2018-08-11T06:21:34.318Z,10.13
2018-08-11T06:24:58.973Z,11.43
2018-08-11T06:28:24.612Z,9.47
2018-08-11T06:31:49.267Z,8.97
2018-08-11T06:35:14.777Z,9.10
2018-08-11T06:38:39.214Z,9.50
2018-08-11T06:42:03.637Z,8.93
2018-08-11T06:45:28.031Z,9.37
2018-08-11T06:48:52.435Z,8.53
2018-08-11T06:52:16.979Z,7.30
2018-08-11T06:55:42.169Z,8.00
2018-08-11T06:59:06.564Z,7.20
2018-08-11T07:02:30.977Z,7.90
2018-08-11T07:05:55.479Z,6.95
2018-08-11T07:09:20.081Z,6.47
2018-08-11T07:12:44.548Z,6.12
2018-08-11T07:16:09.324Z,7.30
2018-08-11T07:19:33.712Z,5.97
2018-08-11T07:22:58.106Z,6.15
2018-08-11T07:26:22.721Z,5.70
2018-08-11T07:29:47.100Z,5.15
2018-08-11T07:33:11.511Z,5.97
2018-08-11T07:36:36.038Z,5.17
2018-08-11T07:40:00.446Z,4.95
2018-08-11T07:43:24.931Z,5.30
2018-08-11T07:46:49.315Z,4.45
2018-08-11T07:50:13.746Z,3.40
2018-08-11T07:53:38.178Z,3.70
2018-08-11T07:57:02.596Z,3.75
2018-08-11T08:00:26.996Z,4.72
2018-08-11T08:03:51.578Z,4.15
2018-08-11T08:07:15.995Z,3.33
2018-08-11T08:10:40.439Z,3.65
2018-08-11T08:14:04.955Z,3.47
2018-08-11T08:17:29.422Z,3.87
2018-08-11T08:20:53.816Z,2.80
2018-08-11T08:24:18.289Z,2.70
2018-08-11T08:27:42.700Z,3.08
2018-08-11T08:31:07.156Z,3.55
2018-08-11T08:34:31.578Z,2.95
2018-08-11T08:37:55.956Z,3.47
2018-08-11T08:41:20.434Z,3.42
2018-08-11T08:44:44.915Z,3.85
2018-08-11T08:48:09.349Z,3.20
2018-08-11T08:51:33.742Z,3.58
2018-08-11T08:54:58.169Z,2.60
2018-08-11T08:58:22.563Z,3.52
2018-08-11T09:01:47.088Z,2.70
2018-08-11T09:05:11.529Z,2.92
2018-08-11T09:08:36.109Z,2.62
2018-08-11T09:12:00.631Z,2.37
2018-08-11T09:15:25.028Z,2.77
2018-08-11T09:18:49.429Z,2.35
2018-08-11T09:22:13.870Z,2.95
2018-08-11T09:25:38.268Z,2.02
2018-08-11T09:29:02.721Z,2.12
2018-08-11T09:32:27.247Z,2.05
2018-08-11T09:35:51.664Z,2.50
2018-08-11T09:39:16.096Z,2.58
2018-08-11T09:42:40.534Z,2.62
2018-08-11T09:46:04.943Z,2.67
2018-08-11T09:49:29.374Z,2.47
2018-08-11T09:52:53.819Z,2.95
2018-08-11T09:56:18.303Z,2.92
2018-08-11T09:59:42.751Z,2.87
2018-08-11T10:03:07.226Z,3.05
2018-08-11T10:06:31.632Z,3.02
2018-08-11T10:09:56.040Z,3.05
2018-08-11T10:13:20.464Z,3.27
2018-08-11T10:16:45.007Z,2.92
2018-08-11T10:20:09.439Z,2.90
2018-08-11T10:23:33.837Z,2.62
2018-08-11T10:26:58.302Z,3.45
2018-08-11T10:30:22.713Z,3.17
2018-08-11T10:33:47.412Z,3.00
2018-08-11T10:37:11.867Z,3.47
2018-08-11T10:40:36.303Z,3.50
2018-08-11T10:44:00.745Z,3.10
2018-08-11T10:47:25.164Z,3.30
2018-08-11T10:50:49.841Z,2.98
2018-08-11T10:54:14.276Z,3.12
2018-08-11T10:57:38.970Z,2.20
2018-08-11T11:01:03.437Z,2.25
2018-08-11T11:04:27.977Z,2.92
2018-08-11T11:07:52.406Z,2.30
2018-08-11T11:11:16.865Z,2.58
2018-08-11T11:14:41.302Z,1.90
2018-08-11T11:18:06.022Z,1.80
2018-08-11T11:21:30.456Z,1.52
2018-08-11T11:24:54.951Z,1.70
2018-08-11T11:28:19.422Z,1.85
2018-08-11T11:31:43.888Z,1.22
2018-08-11T11:35:08.366Z,2.15
2018-08-11T11:38:32.850Z,1.90
2018-08-11T11:41:57.330Z,2.25
2018-08-11T11:45:21.780Z,1.77
2018-08-11T11:48:46.239Z,1.60
2018-08-11T11:52:10.677Z,1.40
2018-08-11T11:55:35.148Z,1.57
2018-08-11T11:58:59.528Z,1.22
2018-08-11T12:02:23.967Z,1.95
2018-08-11T12:05:48.518Z,2.02
2018-08-11T12:09:12.993Z,1.80
2018-08-11T12:12:37.416Z,5.10
2018-08-11T12:16:01.937Z,2.10
2018-08-11T12:19:26.474Z,2.42
2018-08-11T12:22:50.945Z,2.70
2018-08-11T12:26:15.491Z,2.70
2018-08-11T12:29:40.019Z,3.02
2018-08-11T12:33:04.471Z,2.92
2018-08-11T12:36:28.975Z,3.17
2018-08-11T12:39:53.488Z,2.98
2018-08-11T12:43:17.959Z,2.97
2018-08-11T12:46:42.585Z,2.67
2018-08-11T12:50:07.029Z,2.90
2018-08-11T12:53:31.440Z,2.92
2018-08-11T12:56:55.900Z,2.60
2018-08-11T13:00:21.049Z,2.87
2018-08-11T13:03:46.527Z,2.52
2018-08-11T13:07:11.277Z,3.42
2018-08-11T13:10:35.720Z,3.33
2018-08-11T13:14:00.305Z,3.47
2018-08-11T13:17:24.905Z,3.10
2018-08-11T13:20:49.473Z,8.00
2018-08-11T13:24:13.937Z,4.03
2018-08-11T13:27:38.427Z,3.00
2018-08-11T13:31:02.976Z,4.05
2018-08-11T13:34:27.450Z,4.45
2018-08-11T13:37:51.886Z,2.58
2018-08-11T13:41:16.327Z,2.95
2018-08-11T13:44:40.930Z,3.08
2018-08-11T13:48:05.643Z,3.80
2018-08-11T13:51:30.047Z,3.60
2018-08-11T13:54:54.451Z,4.17
2018-08-11T13:58:19.077Z,3.17
2018-08-11T14:01:43.569Z,4.03
2018-08-11T14:05:08.048Z,3.35
2018-08-11T14:08:32.542Z,3.90
2018-08-11T14:11:57.022Z,2.85
2018-08-11T14:15:21.441Z,3.27
2018-08-11T14:18:45.857Z,2.95
2018-08-11T14:22:10.354Z,2.58
2018-08-11T14:25:34.755Z,2.12
2018-08-11T14:28:59.275Z,2.42
2018-08-11T14:32:23.787Z,2.30
2018-08-11T14:35:48.225Z,2.58
2018-08-11T14:39:12.778Z,2.58
2018-08-11T14:42:37.251Z,2.95
2018-08-11T14:46:01.740Z,2.20
2018-08-11T14:49:26.198Z,2.00
2018-08-11T14:52:50.638Z,2.08
2018-08-11T14:56:15.114Z,2.20
2018-08-11T14:59:39.590Z,2.33
2018-08-11T15:03:05.212Z,2.55
2018-08-11T15:06:29.731Z,2.45
2018-08-11T15:09:54.260Z,2.10
2018-08-11T15:13:18.660Z,3.10
2018-08-11T15:16:43.134Z,2.20
2018-08-11T15:20:08.384Z,2.95
2018-08-11T15:23:32.842Z,2.12
2018-08-11T15:26:57.335Z,2.70
2018-08-11T15:30:21.766Z,2.20
2018-08-11T15:33:46.179Z,2.40
2018-08-11T15:37:10.592Z,2.77
2018-08-11T15:40:35.007Z,2.42
2018-08-11T15:43:59.459Z,2.72
2018-08-11T15:47:23.895Z,2.52
2018-08-11T15:50:48.349Z,2.50
2018-08-11T15:54:12.788Z,3.27
2018-08-11T15:57:37.228Z,2.58
2018-08-11T16:01:01.636Z,2.67
2018-08-11T16:04:26.079Z,2.33
2018-08-11T16:07:50.456Z,2.80
2018-08-11T16:11:14.861Z,2.85
2018-08-11T16:14:39.284Z,2.60
2018-08-11T16:18:03.720Z,2.25
2018-08-11T16:21:28.154Z,2.98
2018-08-11T16:24:52.595Z,3.08
2018-08-11T16:28:17.099Z,1.90
2018-08-11T16:31:41.603Z,2.10
2018-08-11T16:35:06.299Z,2.30
2018-08-11T16:38:30.832Z,2.47
2018-08-11T16:41:55.381Z,3.02
2018-08-11T16:45:19.879Z,2.87
2018-08-11T16:48:44.340Z,2.92
2018-08-11T16:52:08.954Z,3.22
2018-08-11T16:55:33.445Z,3.10
2018-08-11T16:58:57.967Z,3.47
2018-08-11T17:02:22.420Z,3.25
2018-08-11T17:05:46.951Z,3.55
2018-08-11T17:09:12.484Z,3.60
2018-08-11T17:12:37.272Z,4.08
2018-08-11T17:16:01.694Z,4.50
2018-08-11T17:19:26.226Z,4.05
2018-08-11T17:22:50.693Z,4.97
2018-08-11T17:26:15.138Z,7.72
2018-08-11T17:29:39.615Z,5.37
2018-08-11T17:33:04.037Z,4.17
2018-08-11T17:36:28.522Z,4.60
2018-08-11T17:39:53.029Z,6.17
2018-08-11T17:43:17.554Z,3.87
2018-08-11T17:46:42.103Z,4.20
2018-08-11T17:50:07.624Z,4.62
2018-08-11T17:53:32.142Z,5.30
2018-08-11T17:56:56.686Z,5.67
2018-08-11T18:00:21.123Z,5.42
2018-08-11T18:03:45.623Z,5.17
2018-08-11T18:07:10.053Z,6.65
2018-08-11T18:10:34.527Z,4.92
2018-08-11T18:13:58.932Z,4.25
2018-08-11T18:17:23.435Z,6.17
2018-08-11T18:20:47.839Z,4.20
2018-08-11T18:24:12.231Z,3.83
2018-08-11T18:27:36.893Z,12.63
2018-08-11T18:31:01.280Z,4.83
2018-08-11T18:34:25.722Z,4.22
2018-08-11T18:37:50.139Z,3.12
2018-08-11T18:41:14.538Z,3.50
2018-08-11T18:44:38.928Z,3.30
2018-08-11T18:48:03.342Z,4.00
2018-08-11T18:51:27.733Z,3.72
2018-08-11T18:54:52.173Z,4.28
2018-08-11T18:58:17.480Z,4.08
2018-08-11T19:01:41.914Z,3.92
2018-08-11T19:05:06.482Z,4.30
2018-08-11T19:08:30.910Z,4.85
2018-08-11T19:11:55.336Z,4.80
2018-08-11T19:15:19.762Z,5.12
2018-08-11T19:18:44.198Z,5.03
2018-08-11T19:22:08.750Z,5.30
2018-08-11T19:25:33.305Z,6.55
2018-08-11T19:28:57.611Z,5.22
2018-08-11T19:32:22.048Z,5.58
2018-08-11T19:35:46.607Z,5.03
2018-08-11T19:39:12.334Z,5.47
2018-08-11T19:42:36.784Z,4.95
2018-08-11T19:46:01.247Z,5.05
2018-08-11T19:49:25.669Z,5.53
2018-08-11T19:52:50.129Z,5.80
2018-08-11T19:56:14.619Z,6.58
2018-08-11T19:59:39.121Z,6.15
2018-08-11T20:03:03.583Z,5.28
2018-08-11T20:06:28.054Z,4.72
2018-08-11T20:09:52.540Z,4.83
2018-08-11T20:13:16.952Z,4.62
2018-08-11T20:16:41.386Z,3.75
2018-08-11T20:20:07.305Z,3.55
2018-08-11T20:23:31.785Z,3.60
2018-08-11T20:26:56.236Z,3.75
2018-08-11T20:30:20.708Z,3.20
2018-08-11T20:33:45.115Z,3.40
2018-08-11T20:37:10.287Z,3.60
2018-08-11T20:40:34.714Z,2.98
2018-08-11T20:43:59.227Z,2.50
2018-08-11T20:47:23.671Z,2.85
2018-08-11T20:50:48.040Z,2.70
2018-08-11T20:54:12.463Z,2.98
2018-08-11T20:57:36.889Z,2.92
2018-08-11T21:01:01.392Z,2.62
2018-08-11T21:04:25.849Z,3.05
2018-08-11T21:07:50.313Z,3.05
2018-08-11T21:11:14.799Z,3.08
2018-08-11T21:14:39.254Z,3.25
2018-08-11T21:18:03.672Z,3.00
2018-08-11T21:21:28.139Z,3.20
2018-08-11T21:24:52.587Z,2.87
2018-08-11T21:28:17.016Z,3.12
2018-08-11T21:31:41.562Z,3.10
2018-08-11T21:35:06.442Z,3.22
2018-08-11T21:38:30.899Z,3.25
2018-08-11T21:41:55.476Z,4.53
2018-08-11T21:45:19.988Z,50.95
2018-08-11T21:48:44.438Z,66.92
2018-08-11T21:52:08.962Z,44.98
2018-08-11T21:55:33.492Z,23.20
2018-08-11T21:58:57.945Z,16.73
2018-08-11T22:02:22.416Z,13.45
2018-08-11T22:05:46.825Z,11.03
2018-08-11T22:09:13.435Z,9.85
2018-08-11T22:12:37.911Z,8.30
2018-08-11T22:16:04.077Z,7.90
2018-08-11T22:19:28.576Z,6.70
2018-08-11T22:22:53.037Z,7.53
2018-08-11T22:26:17.685Z,8.05
2018-08-11T22:29:42.246Z,6.45
2018-08-11T22:33:06.795Z,7.03
2018-08-11T22:36:31.333Z,5.75
2018-08-11T22:39:55.877Z,5.50
2018-08-11T22:43:20.580Z,5.65
2018-08-11T22:46:45.077Z,6.03
2018-08-11T22:50:12.320Z,5.23
2018-08-11T22:53:36.782Z,5.40
2018-08-11T22:57:01.287Z,5.20
2018-08-11T23:00:25.801Z,5.47
2018-08-11T23:03:50.284Z,5.60
2018-08-11T23:07:14.772Z,6.07
2018-08-11T23:10:39.206Z,6.70
2018-08-11T23:14:03.806Z,6.93
2018-08-11T23:17:28.335Z,8.10
2018-08-11T23:20:52.828Z,7.50
2018-08-11T23:24:17.304Z,6.57
2018-08-11T23:27:41.821Z,6.27
2018-08-11T23:31:06.238Z,6.23
2018-08-11T23:34:30.756Z,5.77
2018-08-11T23:37:55.224Z,4.50
2018-08-11T23:41:19.692Z,5.53
2018-08-11T23:44:44.197Z,6.43
2018-08-11T23:48:08.750Z,5.67
2018-08-11T23:51:33.220Z,5.10
2018-08-11T23:54:57.693Z,5.73
2018-08-11T23:58:22.170Z,6.27
